createdAt,value
2023-04-17T00:01:12.448Z,8.75
2023-04-17T00:03:14.242Z,8.15
2023-04-17T00:05:16.656Z,9.30
2023-04-17T00:07:22.511Z,8.85
2023-04-17T00:09:24.226Z,8.77
2023-04-17T00:11:26.271Z,8.77
2023-04-17T00:13:27.748Z,8.95
2023-04-17T00:15:29.413Z,9.10
2023-04-17T00:17:31.022Z,9.25
2023-04-17T00:19:32.582Z,9.20
2023-04-17T00:21:34.126Z,8.02
2023-04-17T00:23:35.784Z,8.18
2023-04-17T00:25:37.264Z,8.45
2023-04-17T00:27:38.737Z,8.48
2023-04-17T00:29:40.533Z,9.55
2023-04-17T00:31:43.448Z,9.70
2023-04-17T00:33:46.339Z,9.18
2023-04-17T00:35:48.077Z,8.55
2023-04-17T00:37:49.584Z,9.32
2023-04-17T00:39:51.277Z,8.18
2023-04-17T00:41:53.406Z,8.57
2023-04-17T00:43:55.098Z,8.43
2023-04-17T00:45:57.450Z,8.93
2023-04-17T00:48:01.146Z,9.60
2023-04-17T00:50:04.361Z,9.45
2023-04-17T00:52:06.240Z,8.68
2023-04-17T00:54:08.776Z,9.52
2023-04-17T00:56:10.734Z,10.00
2023-04-17T00:58:12.566Z,9.43
2023-04-17T01:00:15.324Z,9.52
2023-04-17T01:02:18.624Z,9.90
2023-04-17T01:04:20.728Z,9.63
2023-04-17T01:06:22.623Z,10.20
2023-04-17T01:08:24.468Z,9.63
2023-04-17T01:10:26.881Z,9.70
2023-04-17T01:12:28.591Z,10.27
2023-04-17T01:14:30.429Z,10.00
2023-04-17T01:16:32.018Z,9.70
2023-04-17T01:18:33.696Z,9.85
2023-04-17T01:20:38.346Z,9.63
2023-04-17T01:22:40.088Z,9.77
2023-04-17T01:24:42.264Z,9.77
2023-04-17T01:26:43.850Z,9.38
2023-04-17T01:28:57.165Z,9.77
2023-04-17T01:30:59.003Z,10.50
2023-04-17T01:33:00.838Z,10.48
2023-04-17T01:35:03.463Z,10.13
2023-04-17T01:37:05.405Z,10.30
2023-04-17T01:39:07.457Z,9.95
2023-04-17T01:41:12.329Z,11.65
2023-04-17T01:43:14.394Z,9.00
2023-04-17T01:45:16.014Z,9.55
2023-04-17T01:47:17.534Z,9.52
2023-04-17T01:49:19.581Z,10.40
2023-04-17T01:51:21.743Z,8.60
2023-04-17T01:53:24.121Z,9.25
2023-04-17T01:55:25.703Z,9.27
2023-04-17T01:57:28.005Z,9.80
2023-04-17T01:59:29.553Z,9.38
2023-04-17T02:01:31.241Z,9.63
2023-04-17T02:03:32.947Z,9.25
2023-04-17T02:05:34.560Z,10.20
2023-04-17T02:07:36.061Z,9.30
2023-04-17T02:09:37.853Z,9.38
2023-04-17T02:11:42.364Z,9.07
2023-04-17T02:13:43.872Z,9.48
2023-04-17T02:15:45.705Z,10.82
2023-04-17T02:19:49.675Z,8.70
2023-04-17T02:21:51.285Z,8.57
2023-04-17T02:23:53.706Z,9.27
2023-04-17T02:25:55.340Z,10.05
2023-04-17T02:27:57.236Z,9.55
2023-04-17T02:29:58.834Z,10.02
2023-04-17T02:32:00.596Z,10.23
2023-04-17T02:34:02.453Z,8.90
2023-04-17T02:36:06.199Z,9.27
2023-04-17T02:38:13.508Z,9.15
2023-04-17T02:40:16.169Z,9.23
2023-04-17T02:42:17.700Z,8.25
2023-04-17T02:44:19.562Z,10.48
2023-04-17T02:46:21.187Z,9.77
2023-04-17T02:48:22.744Z,9.18
2023-04-17T02:50:24.256Z,9.27
2023-04-17T02:52:38.335Z,9.43
2023-04-17T02:54:39.862Z,9.68
2023-04-17T02:56:42.708Z,9.05
2023-04-17T02:58:45.480Z,9.02
2023-04-17T03:00:47.121Z,9.57
2023-04-17T03:02:52.651Z,9.32
2023-04-17T03:06:56.313Z,8.77
2023-04-17T03:08:58.117Z,9.43
2023-04-17T03:10:59.857Z,10.18
2023-04-17T03:13:03.520Z,8.88
2023-04-17T03:15:08.936Z,9.50
2023-04-17T03:17:14.094Z,8.65
2023-04-17T03:19:15.688Z,8.65
2023-04-17T03:21:17.336Z,6.95
2023-04-17T03:23:18.825Z,7.50
2023-04-17T03:25:20.495Z,7.43
2023-04-17T03:27:29.037Z,7.43
2023-04-17T03:29:31.225Z,9.00
2023-04-17T03:31:33.044Z,7.55
2023-04-17T03:33:34.744Z,6.88
2023-04-17T03:35:37.472Z,6.82
2023-04-17T03:37:41.839Z,7.57
2023-04-17T03:39:43.404Z,7.32
2023-04-17T03:41:45.120Z,7.00
2023-04-17T03:43:46.827Z,7.40
2023-04-17T03:47:51.299Z,6.35
2023-04-17T03:49:56.009Z,6.57
2023-04-17T03:51:58.581Z,6.90
2023-04-17T03:54:00.420Z,7.18
2023-04-17T03:56:02.188Z,7.10
2023-04-17T03:58:08.532Z,6.10
2023-04-17T04:00:10.616Z,6.53
2023-04-17T04:02:24.788Z,5.82
2023-04-17T04:04:28.289Z,5.90
2023-04-17T04:06:40.975Z,6.35
2023-04-17T04:08:45.335Z,5.45
2023-04-17T04:10:47.517Z,5.93
2023-04-17T04:12:54.339Z,5.47
2023-04-17T04:14:56.142Z,6.03
2023-04-17T04:16:59.530Z,5.63
2023-04-17T04:19:01.311Z,6.40
2023-04-17T04:21:03.079Z,6.25
2023-04-17T04:23:08.324Z,7.82
2023-04-17T04:25:10.836Z,6.65
2023-04-17T04:27:25.082Z,6.20
2023-04-17T04:29:27.465Z,6.00
2023-04-17T04:31:35.784Z,6.35
2023-04-17T04:33:37.943Z,6.07
2023-04-17T04:35:41.821Z,6.45
2023-04-17T04:37:46.308Z,6.20
2023-04-17T04:39:53.999Z,5.90
2023-04-17T04:42:05.614Z,5.75
2023-04-17T04:44:19.719Z,5.68
2023-04-17T04:46:22.935Z,5.72
2023-04-17T04:48:24.803Z,5.03
2023-04-17T04:50:26.507Z,5.28
2023-04-17T04:52:28.247Z,5.45
2023-04-17T04:54:33.811Z,5.40
2023-04-17T04:56:36.697Z,5.05
2023-04-17T04:58:41.187Z,5.50
2023-04-17T05:00:43.980Z,6.30
2023-04-17T05:02:50.550Z,5.50
2023-04-17T05:04:55.460Z,6.25
2023-04-17T05:08:59.566Z,5.97
2023-04-17T05:11:01.506Z,6.00
2023-04-17T05:13:03.532Z,6.22
2023-04-17T05:15:05.706Z,5.63
2023-04-17T05:17:08.326Z,6.00
2023-04-17T05:19:10.179Z,6.18
2023-04-17T05:21:22.677Z,5.20
2023-04-17T05:23:26.381Z,5.88
2023-04-17T05:25:28.083Z,5.20
2023-04-17T05:27:31.817Z,5.63
2023-04-17T05:29:34.122Z,5.63
2023-04-17T05:31:36.261Z,5.43
2023-04-17T05:33:42.789Z,5.78
2023-04-17T05:35:44.320Z,5.72
2023-04-17T05:37:46.086Z,5.25
2023-04-17T05:39:47.767Z,5.50
2023-04-17T05:41:49.299Z,6.30
2023-04-17T05:43:51.145Z,6.10
2023-04-17T05:45:53.775Z,6.03
2023-04-17T05:47:55.614Z,6.47
2023-04-17T05:49:58.466Z,7.30
2023-04-17T05:52:02.835Z,7.60
2023-04-17T05:54:05.279Z,6.65
2023-04-17T05:56:07.521Z,7.07
2023-04-17T05:58:23.268Z,6.30
2023-04-17T06:00:26.226Z,5.93
2023-04-17T06:02:33.213Z,6.03
2023-04-17T06:04:36.171Z,6.57
2023-04-17T06:08:39.754Z,6.00
2023-04-17T06:10:41.391Z,5.78
2023-04-17T06:12:42.957Z,5.85
2023-04-17T06:14:46.513Z,5.90
2023-04-17T06:16:50.780Z,5.20
2023-04-17T06:18:52.420Z,6.38
2023-04-17T06:20:54.378Z,5.70
2023-04-17T06:22:56.967Z,5.85
2023-04-17T06:27:00.284Z,5.93
2023-04-17T06:29:02.159Z,5.65
2023-04-17T06:31:06.008Z,6.25
2023-04-17T06:33:08.600Z,5.70
2023-04-17T06:35:11.474Z,6.38
2023-04-17T06:37:18.602Z,6.07
2023-04-17T06:39:20.206Z,5.68
2023-04-17T06:41:22.512Z,6.18
2023-04-17T06:43:24.596Z,5.90
2023-04-17T06:45:28.289Z,6.45
2023-04-17T06:47:31.156Z,6.00
2023-04-17T06:49:32.776Z,5.97
2023-04-17T06:51:34.412Z,6.18
2023-04-17T06:53:35.943Z,7.35
2023-04-17T06:55:37.539Z,6.68
2023-04-17T06:57:39.358Z,8.00
2023-04-17T06:59:41.132Z,6.47
2023-04-17T07:01:42.789Z,9.27
2023-04-17T07:03:44.704Z,18.83
2023-04-17T07:05:46.507Z,14.95
2023-04-17T07:07:48.232Z,10.63
2023-04-17T07:09:49.972Z,11.40
2023-04-17T07:11:51.961Z,13.10
2023-04-17T07:13:54.028Z,12.20
2023-04-17T07:15:56.594Z,9.15
2023-04-17T07:17:58.297Z,26.67
2023-04-17T07:19:59.964Z,11.43
2023-04-17T07:22:01.506Z,9.13
2023-04-17T07:24:03.145Z,7.50
2023-04-17T07:26:04.849Z,7.40
2023-04-17T07:28:07.042Z,7.07
2023-04-17T07:30:09.052Z,8.10
2023-04-17T07:32:10.797Z,11.75
2023-04-17T07:34:12.550Z,11.77
2023-04-17T07:36:14.191Z,9.18
2023-04-17T07:38:15.945Z,9.95
2023-04-17T07:40:18.027Z,7.78
2023-04-17T07:42:19.562Z,6.85
2023-04-17T07:44:21.204Z,6.68
2023-04-17T07:46:22.751Z,7.90
2023-04-17T07:48:24.666Z,7.50
2023-04-17T07:50:26.425Z,8.25
2023-04-17T07:52:28.004Z,8.30
2023-04-17T07:54:31.406Z,9.55
2023-04-17T07:56:34.508Z,7.25
2023-04-17T07:58:36.105Z,7.15
2023-04-17T08:00:38.747Z,6.43
2023-04-17T08:02:41.673Z,8.30
2023-04-17T08:04:44.755Z,9.52
2023-04-17T08:06:46.985Z,9.48
2023-04-17T08:08:48.710Z,8.48
2023-04-17T08:10:50.636Z,8.27
2023-04-17T08:12:53.168Z,7.10
2023-04-17T08:16:56.403Z,6.55
2023-04-17T08:18:58.065Z,5.78
2023-04-17T08:20:59.927Z,5.75
2023-04-17T08:23:01.693Z,5.57
2023-04-17T08:25:03.396Z,5.55
2023-04-17T08:27:06.115Z,5.78
2023-04-17T08:29:08.112Z,5.53
2023-04-17T08:31:10.843Z,5.28
2023-04-17T08:35:15.742Z,6.68
2023-04-17T08:37:17.411Z,5.10
2023-04-17T08:39:19.577Z,5.82
2023-04-17T08:41:25.194Z,8.02
2023-04-17T08:43:29.502Z,5.65
2023-04-17T08:45:35.307Z,4.97
2023-04-17T08:47:39.314Z,5.75
2023-04-17T08:49:43.765Z,4.60
2023-04-17T08:51:47.138Z,4.70
2023-04-17T08:53:48.891Z,7.15
2023-04-17T08:55:50.515Z,4.38
2023-04-17T08:58:09.041Z,15.70
2023-04-17T09:00:12.160Z,8.50
2023-04-17T09:02:14.087Z,3.60
2023-04-17T09:04:48.594Z,3.45
2023-04-17T09:06:54.572Z,3.70
2023-04-17T09:09:00.321Z,3.00
2023-04-17T09:11:01.908Z,11.82
2023-04-17T09:13:03.836Z,16.02
2023-04-17T09:15:16.472Z,8.82
2023-04-17T09:17:19.604Z,3.58
2023-04-17T09:19:22.247Z,4.90
2023-04-17T09:21:28.976Z,12.23
2023-04-17T09:23:46.215Z,6.05
2023-04-17T09:26:05.505Z,4.13
2023-04-17T09:28:16.654Z,2.92
2023-04-17T09:30:18.191Z,2.70
2023-04-17T09:32:19.738Z,5.55
2023-04-17T09:34:21.836Z,7.03
2023-04-17T09:36:23.789Z,5.68
2023-04-17T09:38:38.258Z,9.13
2023-04-17T09:40:41.497Z,9.25
2023-04-17T09:43:04.484Z,14.35
2023-04-17T09:45:19.904Z,5.63
2023-04-17T09:47:24.895Z,13.25
2023-04-17T09:49:49.738Z,2.70
2023-04-17T09:51:53.619Z,2.65
2023-04-17T09:53:58.971Z,2.65
2023-04-17T09:56:01.515Z,3.00
2023-04-17T09:58:05.121Z,3.83
2023-04-17T10:00:12.019Z,3.50
2023-04-17T10:02:15.878Z,3.17
2023-04-17T10:04:19.444Z,3.00
2023-04-17T10:06:21.120Z,3.45
2023-04-17T10:08:23.897Z,3.50
2023-04-17T10:10:32.335Z,2.00
2023-04-17T10:12:34.900Z,3.38
2023-04-17T10:14:42.748Z,2.60
2023-04-17T10:16:44.572Z,5.57
2023-04-17T10:19:28.607Z,2.50
2023-04-17T10:21:31.115Z,3.25
2023-04-17T10:25:35.269Z,4.05
2023-04-17T10:27:37.302Z,3.20
2023-04-17T10:29:54.514Z,3.35
2023-04-17T10:32:11.146Z,2.60
2023-04-17T10:34:36.921Z,2.67
2023-04-17T10:36:38.530Z,2.70
2023-04-17T10:38:43.313Z,2.88
2023-04-17T10:40:45.576Z,2.20
2023-04-17T10:43:23.256Z,2.38
2023-04-17T10:45:25.034Z,2.50
2023-04-17T10:47:36.165Z,2.00
2023-04-17T10:49:51.600Z,2.40
2023-04-17T10:51:56.267Z,2.22
2023-04-17T10:53:59.815Z,2.55
2023-04-17T10:56:02.837Z,2.97
2023-04-17T10:58:13.540Z,2.78
2023-04-17T11:00:16.429Z,2.40
2023-04-17T11:02:33.967Z,2.38
2023-04-17T11:04:36.044Z,2.22
2023-04-17T11:06:42.092Z,2.35
2023-04-17T11:08:43.695Z,2.60
2023-04-17T11:10:45.588Z,2.30
2023-04-17T11:12:48.427Z,7.55
2023-04-17T11:14:50.115Z,22.98
2023-04-17T11:16:52.206Z,10.73
2023-04-17T11:20:57.144Z,4.30
2023-04-17T11:23:03.511Z,2.90
2023-04-17T11:25:06.121Z,3.50
2023-04-17T11:27:07.694Z,3.00
2023-04-17T11:29:23.420Z,3.55
2023-04-17T11:31:25.142Z,3.08
2023-04-17T11:33:27.187Z,3.00
2023-04-17T11:35:33.310Z,2.90
2023-04-17T11:37:35.018Z,4.75
2023-04-17T11:39:36.696Z,3.30
2023-04-17T11:41:39.039Z,2.65
2023-04-17T11:43:40.812Z,2.83
2023-04-17T11:45:44.585Z,4.15
2023-04-17T11:47:47.736Z,2.90
2023-04-17T11:49:49.547Z,2.40
2023-04-17T11:51:52.381Z,3.80
2023-04-17T11:53:55.849Z,4.13
2023-04-17T11:56:19.487Z,2.92
2023-04-17T11:58:21.330Z,3.05
2023-04-17T12:00:27.380Z,2.78
2023-04-17T12:02:33.563Z,2.50
2023-04-17T12:04:37.184Z,2.35
2023-04-17T12:06:38.926Z,2.40
2023-04-17T12:08:47.308Z,2.08
2023-04-17T12:10:48.889Z,2.30
2023-04-17T12:12:50.466Z,3.20
2023-04-17T12:14:52.183Z,2.85
2023-04-17T12:16:54.171Z,1.90
2023-04-17T12:18:56.664Z,2.55
2023-04-17T12:20:58.143Z,3.03
2023-04-17T12:22:59.819Z,2.20
2023-04-17T12:25:01.440Z,2.22
2023-04-17T12:27:03.887Z,2.80
2023-04-17T12:29:05.432Z,2.50
2023-04-17T12:31:07.120Z,2.65
2023-04-17T12:33:09.598Z,2.33
2023-04-17T12:37:12.767Z,2.65
2023-04-17T12:39:14.336Z,2.13
2023-04-17T12:41:16.087Z,2.45
2023-04-17T12:43:17.795Z,2.38
2023-04-17T12:45:19.843Z,2.45
2023-04-17T12:47:21.438Z,2.47
2023-04-17T12:49:23.670Z,2.50
2023-04-17T12:51:28.706Z,2.42
2023-04-17T12:53:30.324Z,2.50
2023-04-17T12:55:32.284Z,2.50
2023-04-17T12:57:35.552Z,2.53
2023-04-17T12:59:37.028Z,2.50
2023-04-17T13:01:39.088Z,2.88
2023-04-17T13:03:40.953Z,2.88
2023-04-17T13:05:42.880Z,2.80
2023-04-17T13:07:44.447Z,3.20
2023-04-17T13:09:46.389Z,3.25
2023-04-17T13:11:47.918Z,2.95
2023-04-17T13:13:49.617Z,3.38
2023-04-17T13:15:51.361Z,3.05
2023-04-17T13:17:53.718Z,3.00
2023-04-17T13:19:55.222Z,2.88
2023-04-17T13:21:56.802Z,3.08
2023-04-17T13:23:58.517Z,3.35
2023-04-17T13:26:00.065Z,3.03
2023-04-17T13:28:01.646Z,3.08
2023-04-17T13:30:03.462Z,3.03
2023-04-17T13:32:05.397Z,2.85
2023-04-17T13:34:07.110Z,3.58
2023-04-17T13:36:08.720Z,3.40
2023-04-17T13:38:10.319Z,2.65
2023-04-17T13:40:12.080Z,3.00
2023-04-17T13:42:16.364Z,3.33
2023-04-17T13:44:18.594Z,3.03
2023-04-17T13:46:20.345Z,3.05
2023-04-17T13:48:22.077Z,2.85
2023-04-17T13:50:23.762Z,3.10
2023-04-17T13:52:25.400Z,3.17
2023-04-17T13:54:26.962Z,3.08
2023-04-17T13:56:29.176Z,4.45
2023-04-17T14:00:32.341Z,3.90
2023-04-17T14:02:34.475Z,3.58
2023-04-17T14:06:38.379Z,3.50
2023-04-17T14:08:40.952Z,3.42
2023-04-17T14:10:43.301Z,3.13
2023-04-17T14:12:44.970Z,3.15
2023-04-17T14:14:46.859Z,4.00
2023-04-17T14:16:50.775Z,3.15
2023-04-17T14:18:52.531Z,3.10
2023-04-17T14:20:54.597Z,3.35
2023-04-17T14:22:56.190Z,3.22
2023-04-17T14:24:57.680Z,3.40
2023-04-17T14:26:59.304Z,3.45
2023-04-17T14:29:01.001Z,3.30
2023-04-17T14:31:02.707Z,4.10
2023-04-17T14:33:04.373Z,4.35
2023-04-17T14:35:06.588Z,3.85
2023-04-17T14:39:09.950Z,5.65
2023-04-17T14:41:11.630Z,4.60
2023-04-17T14:43:13.264Z,3.90
2023-04-17T14:45:15.053Z,3.92
2023-04-17T14:47:16.709Z,3.50
2023-04-17T14:49:20.322Z,5.03
2023-04-17T14:51:26.852Z,3.72
2023-04-17T14:53:28.433Z,3.95
2023-04-17T14:55:31.301Z,3.55
2023-04-17T14:57:32.826Z,4.30
2023-04-17T14:59:34.364Z,3.60
2023-04-17T15:01:35.940Z,3.83
2023-04-17T15:03:37.694Z,3.10
2023-04-17T15:05:39.644Z,3.50
2023-04-17T15:07:41.248Z,3.30
2023-04-17T15:09:42.767Z,3.25
2023-04-17T15:11:44.324Z,2.80
2023-04-17T15:13:45.798Z,3.42
2023-04-17T15:15:47.530Z,3.58
2023-04-17T15:17:49.167Z,3.22
2023-04-17T15:19:50.775Z,3.10
2023-04-17T15:21:53.038Z,2.80
2023-04-17T15:23:54.789Z,2.83
2023-04-17T15:25:57.731Z,3.35
2023-04-17T15:27:59.296Z,3.97
2023-04-17T15:30:00.988Z,3.60
2023-04-17T15:32:02.660Z,3.58
2023-04-17T15:34:06.433Z,3.63
2023-04-17T15:36:07.983Z,3.83
2023-04-17T15:38:09.531Z,4.05
2023-04-17T15:40:11.579Z,3.80
2023-04-17T15:42:13.103Z,3.47
2023-04-17T15:44:14.721Z,3.70
2023-04-17T15:46:16.542Z,3.97
2023-04-17T15:48:18.125Z,3.70
2023-04-17T15:50:20.983Z,3.67
2023-04-17T15:52:22.611Z,4.10
2023-04-17T15:54:24.134Z,4.22
2023-04-17T15:56:25.642Z,3.80
2023-04-17T15:58:27.377Z,3.80
2023-04-17T16:00:28.945Z,3.70
2023-04-17T16:02:30.767Z,3.92
2023-04-17T16:04:32.607Z,3.90
2023-04-17T16:06:34.333Z,3.88
2023-04-17T16:08:36.898Z,3.67
2023-04-17T16:10:38.469Z,4.13
2023-04-17T16:12:41.629Z,3.80
2023-04-17T16:14:43.219Z,3.95
2023-04-17T16:16:44.782Z,3.95
2023-04-17T16:18:47.178Z,3.55
2023-04-17T16:20:48.941Z,3.22
2023-04-17T16:22:50.551Z,3.55
2023-04-17T16:24:52.181Z,3.58
2023-04-17T16:26:58.534Z,3.83
2023-04-17T16:29:00.293Z,4.28
2023-04-17T16:31:01.947Z,4.38
2023-04-17T16:33:04.024Z,4.45
2023-04-17T16:35:06.186Z,3.92
2023-04-17T16:37:07.867Z,4.15
2023-04-17T16:39:09.441Z,4.60
2023-04-17T16:41:11.194Z,4.30
2023-04-17T16:43:12.773Z,4.25
2023-04-17T16:45:14.526Z,3.80
2023-04-17T16:47:16.231Z,3.70
2023-04-17T16:49:18.088Z,4.30
2023-04-17T16:51:20.570Z,4.55
2023-04-17T16:53:22.272Z,4.22
2023-04-17T16:55:23.780Z,3.88
2023-04-17T16:57:25.328Z,4.28
2023-04-17T16:59:27.029Z,4.35
2023-04-17T17:01:28.641Z,4.00
2023-04-17T17:03:31.561Z,4.28
2023-04-17T17:05:33.209Z,4.13
2023-04-17T17:07:34.805Z,4.05
2023-04-17T17:09:36.430Z,3.85
2023-04-17T17:11:38.032Z,3.80
2023-04-17T17:13:39.769Z,3.67
2023-04-17T17:15:41.638Z,4.00
2023-04-17T17:17:43.337Z,4.05
2023-04-17T17:19:44.961Z,3.97
2023-04-17T17:21:46.461Z,3.95
2023-04-17T17:23:49.104Z,4.32
2023-04-17T17:25:50.726Z,4.15
2023-04-17T17:27:52.384Z,3.92
2023-04-17T17:29:55.389Z,4.20
2023-04-17T17:31:57.022Z,4.50
2023-04-17T17:34:16.275Z,4.07
2023-04-17T17:36:23.709Z,4.43
2023-04-17T17:38:28.385Z,3.88
2023-04-17T17:40:29.906Z,4.25
2023-04-17T17:42:31.585Z,4.30
2023-04-17T17:44:33.147Z,3.97
2023-04-17T17:46:35.657Z,3.72
2023-04-17T17:48:37.251Z,3.67
2023-04-17T17:50:38.832Z,4.00
2023-04-17T17:52:40.510Z,4.57
2023-04-17T17:54:42.642Z,4.63
2023-04-17T17:56:44.269Z,5.07
2023-04-17T17:58:45.900Z,4.50
2023-04-17T18:00:48.634Z,4.72
2023-04-17T18:02:50.242Z,5.10
2023-04-17T18:04:52.350Z,3.80
2023-04-17T18:06:54.357Z,5.95
2023-04-17T18:08:57.401Z,4.15
2023-04-17T18:10:58.884Z,7.40
2023-04-17T18:13:00.370Z,4.85
2023-04-17T18:15:02.125Z,4.47
2023-04-17T18:17:03.649Z,5.05
2023-04-17T18:19:05.289Z,5.07
2023-04-17T18:21:07.753Z,4.82
2023-04-17T18:25:11.268Z,5.60
2023-04-17T18:27:13.055Z,5.32
2023-04-17T18:29:14.737Z,4.97
2023-04-17T18:31:16.620Z,4.70
2023-04-17T18:33:18.368Z,4.70
2023-04-17T18:35:19.904Z,4.75
2023-04-17T18:37:22.816Z,4.90
2023-04-17T18:39:24.361Z,4.78
2023-04-17T18:41:26.962Z,4.85
2023-04-17T18:43:28.534Z,4.90
2023-04-17T18:45:30.218Z,4.65
2023-04-17T18:47:32.228Z,4.55
2023-04-17T18:49:33.838Z,4.65
2023-04-17T18:51:37.455Z,5.18
2023-04-17T18:53:39.081Z,4.40
2023-04-17T18:55:40.823Z,5.03
2023-04-17T18:57:42.325Z,4.28
2023-04-17T18:59:43.858Z,4.53
2023-04-17T19:01:45.498Z,4.93
2023-04-17T19:03:47.138Z,5.22
2023-04-17T19:05:48.736Z,5.18
2023-04-17T19:07:51.865Z,5.43
2023-04-17T19:09:54.016Z,5.82
2023-04-17T19:11:56.136Z,5.15
2023-04-17T19:13:57.870Z,5.25
2023-04-17T19:16:00.178Z,5.13
2023-04-17T19:18:01.949Z,4.78
2023-04-17T19:20:04.340Z,5.00
2023-04-17T19:22:05.876Z,4.80
2023-04-17T19:24:08.467Z,4.65
2023-04-17T19:28:13.253Z,4.50
2023-04-17T19:30:14.824Z,4.40
2023-04-17T19:32:16.383Z,4.47
2023-04-17T19:34:18.104Z,5.03
2023-04-17T19:36:19.676Z,4.78
2023-04-17T19:38:21.569Z,4.38
2023-04-17T19:40:25.582Z,4.45
2023-04-17T19:42:27.833Z,4.32
2023-04-17T19:44:29.433Z,4.43
2023-04-17T19:46:31.075Z,4.22
2023-04-17T19:48:32.720Z,4.93
2023-04-17T19:50:34.346Z,4.38
2023-04-17T19:52:38.702Z,5.05
2023-04-17T19:54:40.562Z,4.65
2023-04-17T19:56:42.240Z,4.57
2023-04-17T19:58:43.848Z,5.22
2023-04-17T20:00:46.435Z,4.80
2023-04-17T20:02:48.359Z,4.57
2023-04-17T20:04:49.898Z,4.63
2023-04-17T20:06:52.035Z,5.43
2023-04-17T20:08:56.405Z,5.32
2023-04-17T20:10:58.118Z,6.13
2023-04-17T20:12:59.768Z,5.18
2023-04-17T20:15:01.383Z,5.95
2023-04-17T20:17:02.912Z,5.40
2023-04-17T20:19:04.490Z,7.15
2023-04-17T20:21:06.357Z,5.63
2023-04-17T20:23:07.949Z,5.32
2023-04-17T20:25:09.987Z,5.75
2023-04-17T20:27:14.148Z,5.53
2023-04-17T20:29:15.913Z,4.80
2023-04-17T20:31:17.743Z,4.88
2023-04-17T20:33:19.321Z,4.95
2023-04-17T20:35:23.639Z,5.30
2023-04-17T20:37:25.538Z,4.60
2023-04-17T20:39:27.291Z,4.78
2023-04-17T20:41:28.792Z,4.70
2023-04-17T20:43:33.337Z,5.35
2023-04-17T20:45:35.048Z,5.28
2023-04-17T20:47:37.735Z,5.30
2023-04-17T20:49:39.436Z,4.53
2023-04-17T20:51:41.021Z,4.75
2023-04-17T20:53:42.533Z,4.90
2023-04-17T20:55:46.628Z,5.78
2023-04-17T20:57:48.428Z,4.85
2023-04-17T20:59:49.967Z,5.60
2023-04-17T21:01:52.781Z,5.70
2023-04-17T21:03:54.507Z,5.35
2023-04-17T21:05:56.341Z,5.10
2023-04-17T21:07:58.019Z,6.18
2023-04-17T21:09:59.490Z,5.97
2023-04-17T21:12:01.971Z,6.00
2023-04-17T21:14:03.709Z,5.70
2023-04-17T21:16:10.967Z,5.15
2023-04-17T21:18:12.592Z,5.75
2023-04-17T21:20:14.259Z,5.60
2023-04-17T21:22:17.136Z,5.20
2023-04-17T21:24:19.502Z,5.40
2023-04-17T21:26:21.780Z,5.60
2023-04-17T21:28:23.515Z,5.60
2023-04-17T21:30:27.336Z,5.15
2023-04-17T21:32:29.224Z,6.38
2023-04-17T21:34:30.917Z,6.00
2023-04-17T21:36:32.734Z,6.38
2023-04-17T21:38:34.238Z,5.35
2023-04-17T21:40:37.160Z,5.80
2023-04-17T21:42:38.998Z,5.97
2023-04-17T21:44:40.687Z,6.55
2023-04-17T21:46:45.146Z,6.90
2023-04-17T21:48:46.688Z,7.55
2023-04-17T21:50:48.464Z,7.18
2023-04-17T21:52:50.144Z,7.25
2023-04-17T21:54:51.983Z,7.10
2023-04-17T21:56:54.302Z,7.35
2023-04-17T21:58:56.056Z,7.55
2023-04-17T22:00:57.665Z,8.05
2023-04-17T22:02:59.430Z,6.85
2023-04-17T22:05:01.016Z,6.72
2023-04-17T22:07:02.710Z,6.45
2023-04-17T22:09:04.873Z,6.50
2023-04-17T22:11:06.444Z,6.15
2023-04-17T22:13:08.127Z,6.53
2023-04-17T22:15:10.199Z,6.38
2023-04-17T22:17:11.753Z,6.50
2023-04-17T22:19:13.335Z,5.80
2023-04-17T22:21:15.574Z,6.20
2023-04-17T22:23:17.084Z,5.53
2023-04-17T22:25:18.887Z,5.53
2023-04-17T22:27:20.460Z,4.97
2023-04-17T22:29:22.181Z,5.22
2023-04-17T22:31:23.769Z,5.88
2023-04-17T22:33:26.074Z,5.53
2023-04-17T22:35:28.061Z,5.72
2023-04-17T22:37:32.531Z,5.20
2023-04-17T22:39:34.226Z,5.20
2023-04-17T22:41:36.913Z,5.20
2023-04-17T22:45:40.064Z,4.90
2023-04-17T22:47:41.719Z,5.30
2023-04-17T22:49:44.020Z,4.50
2023-04-17T22:51:45.882Z,4.68
2023-04-17T22:53:47.376Z,5.15
2023-04-17T22:56:00.363Z,5.60
2023-04-17T22:58:02.628Z,5.65
2023-04-17T23:00:04.571Z,5.45
2023-04-17T23:02:06.214Z,5.53
2023-04-17T23:04:09.311Z,5.53
2023-04-17T23:06:11.325Z,5.03
2023-04-17T23:08:12.893Z,5.22
2023-04-17T23:10:14.592Z,5.00
2023-04-17T23:12:16.148Z,5.20
2023-04-17T23:14:17.711Z,5.07
2023-04-17T23:16:19.336Z,5.03
2023-04-17T23:18:21.058Z,4.70
2023-04-17T23:20:24.843Z,4.95
2023-04-17T23:22:26.630Z,4.88
2023-04-17T23:24:32.969Z,5.32
2023-04-17T23:26:34.522Z,6.28
2023-04-17T23:28:36.036Z,5.25
2023-04-17T23:30:37.654Z,5.40
2023-04-17T23:32:41.543Z,5.20
2023-04-17T23:34:43.499Z,5.55
2023-04-17T23:36:45.272Z,5.13
2023-04-17T23:38:46.753Z,5.53
2023-04-17T23:40:48.349Z,4.90
2023-04-17T23:42:50.143Z,5.50
2023-04-17T23:44:52.544Z,5.30
2023-04-17T23:46:54.462Z,5.03
2023-04-17T23:48:56.064Z,5.20
2023-04-17T23:50:58.008Z,5.75
2023-04-17T23:53:00.040Z,6.82
2023-04-17T23:55:02.746Z,6.32
2023-04-17T23:57:04.392Z,6.10
2023-04-17T23:59:05.948Z,6.22
